sensor_id;sensor_type;location;lat;lon;timestamp;P1;durP1;ratioP1;P2;durP2;ratioP2
29906;SDS011;16776;50.958;10.994;2023-08-17T00:01:43;2.42;;;0.50;;
29906;SDS011;16776;50.958;10.994;2023-08-17T00:04:09;0.45;;;0.38;;
29906;SDS011;16776;50.958;10.994;2023-08-17T00:06:36;0.73;;;0.20;;
29906;SDS011;16776;50.958;10.994;2023-08-17T00:09:02;0.40;;;0.30;;
29906;SDS011;16776;50.958;10.994;2023-08-17T00:11:30;1.27;;;0.45;;
29906;SDS011;16776;50.958;10.994;2023-08-17T00:13:57;0.93;;;0.47;;
29906;SDS011;16776;50.958;10.994;2023-08-17T00:16:24;0.93;;;0.35;;
29906;SDS011;16776;50.958;10.994;2023-08-17T00:18:51;0.47;;;0.30;;
29906;SDS011;16776;50.958;10.994;2023-08-17T00:21:18;1.30;;;0.20;;
29906;SDS011;16776;50.958;10.994;2023-08-17T00:23:44;1.08;;;0.52;;
29906;SDS011;16776;50.958;10.994;2023-08-17T00:26:11;0.80;;;0.22;;
29906;SDS011;16776;50.958;10.994;2023-08-17T00:28:39;1.73;;;0.50;;
29906;SDS011;16776;50.958;10.994;2023-08-17T00:31:07;0.77;;;0.40;;
29906;SDS011;16776;50.958;10.994;2023-08-17T00:33:33;0.57;;;0.52;;
29906;SDS011;16776;50.958;10.994;2023-08-17T00:36:00;1.70;;;0.50;;
29906;SDS011;16776;50.958;10.994;2023-08-17T00:38:26;1.58;;;0.70;;
29906;SDS011;16776;50.958;10.994;2023-08-17T00:40:53;0.93;;;0.52;;
29906;SDS011;16776;50.958;10.994;2023-08-17T00:43:20;1.13;;;0.32;;
29906;SDS011;16776;50.958;10.994;2023-08-17T00:45:47;0.30;;;0.30;;
29906;SDS011;16776;50.958;10.994;2023-08-17T00:48:15;0.47;;;0.30;;
29906;SDS011;16776;50.958;10.994;2023-08-17T00:50:44;0.80;;;0.30;;
29906;SDS011;16776;50.958;10.994;2023-08-17T00:53:14;1.40;;;0.65;;
29906;SDS011;16776;50.958;10.994;2023-08-17T00:55:42;0.40;;;0.40;;
29906;SDS011;16776;50.958;10.994;2023-08-17T00:58:09;0.20;;;0.20;;
29906;SDS011;16776;50.958;10.994;2023-08-17T01:00:35;0.35;;;0.25;;
29906;SDS011;16776;50.958;10.994;2023-08-17T01:03:02;0.75;;;0.30;;
29906;SDS011;16776;50.958;10.994;2023-08-17T01:05:31;1.02;;;0.20;;
29906;SDS011;16776;50.958;10.994;2023-08-17T01:07:58;0.32;;;0.17;;
29906;SDS011;16776;50.958;10.994;2023-08-17T01:10:25;0.28;;;0.20;;
29906;SDS011;16776;50.958;10.994;2023-08-17T01:12:57;0.10;;;0.10;;
29906;SDS011;16776;50.958;10.994;2023-08-17T01:15:31;0.40;;;0.30;;
29906;SDS011;16776;50.958;10.994;2023-08-17T01:18:04;0.30;;;0.30;;
29906;SDS011;16776;50.958;10.994;2023-08-17T01:20:43;1.02;;;0.15;;
29906;SDS011;16776;50.958;10.994;2023-08-17T01:23:13;0.82;;;0.40;;
29906;SDS011;16776;50.958;10.994;2023-08-17T01:25:40;0.35;;;0.20;;
29906;SDS011;16776;50.958;10.994;2023-08-17T01:28:07;0.50;;;0.30;;
29906;SDS011;16776;50.958;10.994;2023-08-17T01:30:34;0.50;;;0.38;;
29906;SDS011;16776;50.958;10.994;2023-08-17T01:33:06;0.63;;;0.20;;
29906;SDS011;16776;50.958;10.994;2023-08-17T01:35:37;0.22;;;0.22;;
29906;SDS011;16776;50.958;10.994;2023-08-17T01:38:07;0.37;;;0.37;;
29906;SDS011;16776;50.958;10.994;2023-08-17T01:40:38;0.47;;;0.30;;
29906;SDS011;16776;50.958;10.994;2023-08-17T01:43:06;0.32;;;0.13;;
29906;SDS011;16776;50.958;10.994;2023-08-17T01:45:33;0.50;;;0.22;;
29906;SDS011;16776;50.958;10.994;2023-08-17T01:48:00;0.20;;;0.20;;
29906;SDS011;16776;50.958;10.994;2023-08-17T01:50:27;1.38;;;0.17;;
29906;SDS011;16776;50.958;10.994;2023-08-17T01:52:53;0.55;;;0.30;;
29906;SDS011;16776;50.958;10.994;2023-08-17T01:55:21;0.20;;;0.20;;
29906;SDS011;16776;50.958;10.994;2023-08-17T01:57:49;0.68;;;0.30;;
29906;SDS011;16776;50.958;10.994;2023-08-17T02:00:16;4.38;;;0.63;;
29906;SDS011;16776;50.958;10.994;2023-08-17T02:02:43;0.40;;;0.30;;
29906;SDS011;16776;50.958;10.994;2023-08-17T02:05:09;0.52;;;0.30;;
29906;SDS011;16776;50.958;10.994;2023-08-17T02:07:36;0.43;;;0.30;;
29906;SDS011;16776;50.958;10.994;2023-08-17T02:10:03;0.68;;;0.20;;
29906;SDS011;16776;50.958;10.994;2023-08-17T02:12:30;0.20;;;0.20;;
29906;SDS011;16776;50.958;10.994;2023-08-17T02:14:58;0.57;;;0.30;;
29906;SDS011;16776;50.958;10.994;2023-08-17T02:17:24;0.17;;;0.10;;
29906;SDS011;16776;50.958;10.994;2023-08-17T02:19:51;0.38;;;0.20;;
29906;SDS011;16776;50.958;10.994;2023-08-17T02:22:17;0.20;;;0.20;;
29906;SDS011;16776;50.958;10.994;2023-08-17T02:24:44;0.10;;;0.10;;
29906;SDS011;16776;50.958;10.994;2023-08-17T02:27:13;0.30;;;0.20;;
29906;SDS011;16776;50.958;10.994;2023-08-17T02:29:39;0.10;;;0.10;;
29906;SDS011;16776;50.958;10.994;2023-08-17T02:32:07;0.22;;;0.22;;
29906;SDS011;16776;50.958;10.994;2023-08-17T02:34:34;0.32;;;0.20;;
29906;SDS011;16776;50.958;10.994;2023-08-17T02:37:00;0.63;;;0.20;;
29906;SDS011;16776;50.958;10.994;2023-08-17T02:39:27;0.38;;;0.28;;
29906;SDS011;16776;50.958;10.994;2023-08-17T02:41:53;0.60;;;0.10;;
29906;SDS011;16776;50.958;10.994;2023-08-17T02:44:20;0.20;;;0.10;;
29906;SDS011;16776;50.958;10.994;2023-08-17T02:46:47;0.20;;;0.10;;
29906;SDS011;16776;50.958;10.994;2023-08-17T02:49:15;0.22;;;0.20;;
29906;SDS011;16776;50.958;10.994;2023-08-17T02:51:42;0.20;;;0.20;;
29906;SDS011;16776;50.958;10.994;2023-08-17T02:54:08;0.40;;;0.40;;
29906;SDS011;16776;50.958;10.994;2023-08-17T02:56:35;0.28;;;0.28;;
29906;SDS011;16776;50.958;10.994;2023-08-17T02:59:04;0.50;;;0.20;;
29906;SDS011;16776;50.958;10.994;2023-08-17T03:01:30;0.43;;;0.20;;
29906;SDS011;16776;50.958;10.994;2023-08-17T03:03:57;0.20;;;0.10;;
29906;SDS011;16776;50.958;10.994;2023-08-17T03:06:25;0.60;;;0.50;;
29906;SDS011;16776;50.958;10.994;2023-08-17T03:08:51;1.23;;;0.20;;
29906;SDS011;16776;50.958;10.994;2023-08-17T03:11:18;0.08;;;0.08;;
29906;SDS011;16776;50.958;10.994;2023-08-17T03:13:48;0.32;;;0.13;;
29906;SDS011;16776;50.958;10.994;2023-08-17T03:16:14;0.20;;;0.20;;
29906;SDS011;16776;50.958;10.994;2023-08-17T03:18:41;0.22;;;0.20;;
29906;SDS011;16776;50.958;10.994;2023-08-17T03:21:08;0.28;;;0.10;;
29906;SDS011;16776;50.958;10.994;2023-08-17T03:23:36;0.40;;;0.30;;
29906;SDS011;16776;50.958;10.994;2023-08-17T03:26:02;0.30;;;0.20;;
29906;SDS011;16776;50.958;10.994;2023-08-17T03:28:29;0.47;;;0.30;;
29906;SDS011;16776;50.958;10.994;2023-08-17T03:30:55;0.50;;;0.30;;
29906;SDS011;16776;50.958;10.994;2023-08-17T03:33:22;0.40;;;0.40;;
29906;SDS011;16776;50.958;10.994;2023-08-17T03:35:49;0.20;;;0.20;;
29906;SDS011;16776;50.958;10.994;2023-08-17T03:38:15;0.43;;;0.15;;
29906;SDS011;16776;50.958;10.994;2023-08-17T03:40:43;0.30;;;0.30;;
29906;SDS011;16776;50.958;10.994;2023-08-17T03:43:10;0.20;;;0.20;;
29906;SDS011;16776;50.958;10.994;2023-08-17T03:45:36;0.40;;;0.40;;
29906;SDS011;16776;50.958;10.994;2023-08-17T03:48:03;0.70;;;0.20;;
29906;SDS011;16776;50.958;10.994;2023-08-17T03:50:31;0.20;;;0.20;;
29906;SDS011;16776;50.958;10.994;2023-08-17T03:52:59;0.90;;;0.57;;
29906;SDS011;16776;50.958;10.994;2023-08-17T03:55:29;0.40;;;0.38;;
29906;SDS011;16776;50.958;10.994;2023-08-17T03:57:57;0.35;;;0.10;;
29906;SDS011;16776;50.958;10.994;2023-08-17T04:00:24;0.40;;;0.30;;
29906;SDS011;16776;50.958;10.994;2023-08-17T04:02:50;0.57;;;0.20;;
29906;SDS011;16776;50.958;10.994;2023-08-17T04:05:17;0.20;;;0.20;;
29906;SDS011;16776;50.958;10.994;2023-08-17T04:07:43;0.20;;;0.20;;
29906;SDS011;16776;50.958;10.994;2023-08-17T04:10:12;0.40;;;0.40;;
29906;SDS011;16776;50.958;10.994;2023-08-17T04:12:39;0.10;;;0.10;;
29906;SDS011;16776;50.958;10.994;2023-08-17T04:15:07;0.38;;;0.30;;
29906;SDS011;16776;50.958;10.994;2023-08-17T04:17:34;0.22;;;0.20;;
29906;SDS011;16776;50.958;10.994;2023-08-17T04:20:01;0.20;;;0.20;;
29906;SDS011;16776;50.958;10.994;2023-08-17T04:22:27;0.30;;;0.30;;
29906;SDS011;16776;50.958;10.994;2023-08-17T04:24:54;0.77;;;0.17;;
29906;SDS011;16776;50.958;10.994;2023-08-17T04:27:20;0.25;;;0.25;;
29906;SDS011;16776;50.958;10.994;2023-08-17T04:29:47;0.43;;;0.28;;
29906;SDS011;16776;50.958;10.994;2023-08-17T04:32:15;0.20;;;0.20;;
29906;SDS011;16776;50.958;10.994;2023-08-17T04:34:45;0.40;;;0.20;;
29906;SDS011;16776;50.958;10.994;2023-08-17T04:37:13;0.20;;;0.20;;
29906;SDS011;16776;50.958;10.994;2023-08-17T04:39:39;1.65;;;0.30;;
29906;SDS011;16776;50.958;10.994;2023-08-17T04:42:08;0.20;;;0.20;;
29906;SDS011;16776;50.958;10.994;2023-08-17T04:44:35;0.20;;;0.20;;
29906;SDS011;16776;50.958;10.994;2023-08-17T04:47:01;0.32;;;0.32;;
29906;SDS011;16776;50.958;10.994;2023-08-17T04:49:29;1.05;;;0.40;;
29906;SDS011;16776;50.958;10.994;2023-08-17T04:51:56;0.17;;;0.17;;
29906;SDS011;16776;50.958;10.994;2023-08-17T04:54:23;1.10;;;0.20;;
29906;SDS011;16776;50.958;10.994;2023-08-17T04:56:49;1.45;;;0.30;;
29906;SDS011;16776;50.958;10.994;2023-08-17T04:59:16;0.82;;;0.25;;
29906;SDS011;16776;50.958;10.994;2023-08-17T05:01:45;0.45;;;0.25;;
29906;SDS011;16776;50.958;10.994;2023-08-17T05:04:12;0.40;;;0.22;;
29906;SDS011;16776;50.958;10.994;2023-08-17T05:06:39;0.35;;;0.35;;
29906;SDS011;16776;50.958;10.994;2023-08-17T05:09:06;0.57;;;0.20;;
29906;SDS011;16776;50.958;10.994;2023-08-17T05:11:33;0.28;;;0.20;;
29906;SDS011;16776;50.958;10.994;2023-08-17T05:13:59;0.45;;;0.43;;
29906;SDS011;16776;50.958;10.994;2023-08-17T05:16:26;0.20;;;0.20;;
29906;SDS011;16776;50.958;10.994;2023-08-17T05:18:52;1.17;;;0.40;;
29906;SDS011;16776;50.958;10.994;2023-08-17T05:21:19;0.45;;;0.40;;
29906;SDS011;16776;50.958;10.994;2023-08-17T05:23:47;0.35;;;0.32;;
29906;SDS011;16776;50.958;10.994;2023-08-17T05:26:13;0.35;;;0.35;;
29906;SDS011;16776;50.958;10.994;2023-08-17T05:28:40;0.28;;;0.28;;
29906;SDS011;16776;50.958;10.994;2023-08-17T05:31:07;0.35;;;0.30;;
29906;SDS011;16776;50.958;10.994;2023-08-17T05:33:34;0.40;;;0.40;;
29906;SDS011;16776;50.958;10.994;2023-08-17T05:36:01;0.32;;;0.32;;
29906;SDS011;16776;50.958;10.994;2023-08-17T05:38:28;0.47;;;0.40;;
29906;SDS011;16776;50.958;10.994;2023-08-17T05:40:56;0.38;;;0.38;;
29906;SDS011;16776;50.958;10.994;2023-08-17T05:43:23;0.30;;;0.30;;
29906;SDS011;16776;50.958;10.994;2023-08-17T05:45:50;0.50;;;0.50;;
29906;SDS011;16776;50.958;10.994;2023-08-17T05:48:18;1.45;;;0.25;;
29906;SDS011;16776;50.958;10.994;2023-08-17T05:50:45;1.30;;;0.38;;
29906;SDS011;16776;50.958;10.994;2023-08-17T05:53:12;0.40;;;0.40;;
29906;SDS011;16776;50.958;10.994;2023-08-17T05:55:38;0.30;;;0.30;;
29906;SDS011;16776;50.958;10.994;2023-08-17T05:58:06;0.60;;;0.38;;
29906;SDS011;16776;50.958;10.994;2023-08-17T06:00:33;0.75;;;0.40;;
29906;SDS011;16776;50.958;10.994;2023-08-17T06:03:00;0.43;;;0.30;;
29906;SDS011;16776;50.958;10.994;2023-08-17T06:05:27;1.40;;;0.70;;
29906;SDS011;16776;50.958;10.994;2023-08-17T06:07:54;0.47;;;0.47;;
29906;SDS011;16776;50.958;10.994;2023-08-17T06:10:21;0.35;;;0.35;;
29906;SDS011;16776;50.958;10.994;2023-08-17T06:12:50;0.75;;;0.52;;
29906;SDS011;16776;50.958;10.994;2023-08-17T06:15:18;0.65;;;0.50;;
29906;SDS011;16776;50.958;10.994;2023-08-17T06:17:44;0.52;;;0.52;;
29906;SDS011;16776;50.958;10.994;2023-08-17T06:20:11;0.68;;;0.68;;
29906;SDS011;16776;50.958;10.994;2023-08-17T06:22:40;0.52;;;0.50;;
29906;SDS011;16776;50.958;10.994;2023-08-17T06:25:07;0.52;;;0.52;;
29906;SDS011;16776;50.958;10.994;2023-08-17T06:27:34;0.47;;;0.30;;
29906;SDS011;16776;50.958;10.994;2023-08-17T06:30:01;1.10;;;0.50;;
29906;SDS011;16776;50.958;10.994;2023-08-17T06:32:29;3.35;;;1.35;;
29906;SDS011;16776;50.958;10.994;2023-08-17T06:34:56;0.50;;;0.50;;
29906;SDS011;16776;50.958;10.994;2023-08-17T06:37:23;0.52;;;0.52;;
29906;SDS011;16776;50.958;10.994;2023-08-17T06:39:50;1.73;;;0.43;;
29906;SDS011;16776;50.958;10.994;2023-08-17T06:42:16;0.80;;;0.73;;
29906;SDS011;16776;50.958;10.994;2023-08-17T06:44:43;0.63;;;0.63;;
29906;SDS011;16776;50.958;10.994;2023-08-17T06:47:09;0.55;;;0.55;;
29906;SDS011;16776;50.958;10.994;2023-08-17T06:49:37;1.00;;;0.65;;
29906;SDS011;16776;50.958;10.994;2023-08-17T06:52:04;0.70;;;0.70;;
29906;SDS011;16776;50.958;10.994;2023-08-17T06:54:31;1.50;;;0.60;;
29906;SDS011;16776;50.958;10.994;2023-08-17T06:56:58;0.40;;;0.40;;
29906;SDS011;16776;50.958;10.994;2023-08-17T06:59:24;0.38;;;0.38;;
29906;SDS011;16776;50.958;10.994;2023-08-17T07:01:51;0.40;;;0.40;;
29906;SDS011;16776;50.958;10.994;2023-08-17T07:04:18;0.80;;;0.45;;
29906;SDS011;16776;50.958;10.994;2023-08-17T07:06:46;0.50;;;0.45;;
29906;SDS011;16776;50.958;10.994;2023-08-17T07:09:12;0.68;;;0.40;;
29906;SDS011;16776;50.958;10.994;2023-08-17T07:11:39;0.70;;;0.70;;
29906;SDS011;16776;50.958;10.994;2023-08-17T07:14:05;0.70;;;0.70;;
29906;SDS011;16776;50.958;10.994;2023-08-17T07:16:32;1.08;;;0.55;;
29906;SDS011;16776;50.958;10.994;2023-08-17T07:18:59;5.35;;;0.70;;
29906;SDS011;16776;50.958;10.994;2023-08-17T07:21:26;0.55;;;0.47;;
29906;SDS011;16776;50.958;10.994;2023-08-17T07:23:54;0.60;;;0.60;;
29906;SDS011;16776;50.958;10.994;2023-08-17T07:26:21;0.47;;;0.40;;
29906;SDS011;16776;50.958;10.994;2023-08-17T07:28:48;0.40;;;0.40;;
29906;SDS011;16776;50.958;10.994;2023-08-17T07:31:15;0.50;;;0.50;;
29906;SDS011;16776;50.958;10.994;2023-08-17T07:33:41;0.50;;;0.50;;
29906;SDS011;16776;50.958;10.994;2023-08-17T07:36:08;1.45;;;0.73;;
29906;SDS011;16776;50.958;10.994;2023-08-17T07:38:35;0.75;;;0.40;;
29906;SDS011;16776;50.958;10.994;2023-08-17T07:41:05;0.63;;;0.63;;
29906;SDS011;16776;50.958;10.994;2023-08-17T07:43:32;0.45;;;0.45;;
29906;SDS011;16776;50.958;10.994;2023-08-17T07:46:01;1.08;;;0.57;;
29906;SDS011;16776;50.958;10.994;2023-08-17T07:48:28;2.05;;;0.55;;
29906;SDS011;16776;50.958;10.994;2023-08-17T07:50:58;1.00;;;0.55;;
29906;SDS011;16776;50.958;10.994;2023-08-17T07:53:25;1.23;;;0.77;;
29906;SDS011;16776;50.958;10.994;2023-08-17T07:55:51;1.00;;;0.95;;
29906;SDS011;16776;50.958;10.994;2023-08-17T07:58:20;0.77;;;0.77;;
29906;SDS011;16776;50.958;10.994;2023-08-17T08:00:46;0.88;;;0.88;;
29906;SDS011;16776;50.958;10.994;2023-08-17T08:03:15;0.90;;;0.73;;
29906;SDS011;16776;50.958;10.994;2023-08-17T08:05:42;0.70;;;0.70;;
29906;SDS011;16776;50.958;10.994;2023-08-17T08:08:08;0.80;;;0.80;;
29906;SDS011;16776;50.958;10.994;2023-08-17T08:10:35;1.00;;;0.70;;
29906;SDS011;16776;50.958;10.994;2023-08-17T08:13:01;0.90;;;0.90;;
29906;SDS011;16776;50.958;10.994;2023-08-17T08:15:30;0.70;;;0.57;;
29906;SDS011;16776;50.958;10.994;2023-08-17T08:17:56;1.10;;;1.00;;
29906;SDS011;16776;50.958;10.994;2023-08-17T08:20:23;1.17;;;1.15;;
29906;SDS011;16776;50.958;10.994;2023-08-17T08:22:49;0.93;;;0.90;;
29906;SDS011;16776;50.958;10.994;2023-08-17T08:25:16;0.90;;;0.90;;
29906;SDS011;16776;50.958;10.994;2023-08-17T08:27:42;1.00;;;0.90;;
29906;SDS011;16776;50.958;10.994;2023-08-17T08:30:09;0.88;;;0.88;;
29906;SDS011;16776;50.958;10.994;2023-08-17T08:32:37;1.10;;;1.10;;
29906;SDS011;16776;50.958;10.994;2023-08-17T08:35:04;1.33;;;1.30;;
29906;SDS011;16776;50.958;10.994;2023-08-17T08:37:31;1.30;;;1.20;;
29906;SDS011;16776;50.958;10.994;2023-08-17T08:39:58;0.63;;;0.63;;
29906;SDS011;16776;50.958;10.994;2023-08-17T08:42:25;0.90;;;0.90;;
29906;SDS011;16776;50.958;10.994;2023-08-17T08:44:52;0.93;;;0.90;;
29906;SDS011;16776;50.958;10.994;2023-08-17T08:47:19;0.90;;;0.80;;
29906;SDS011;16776;50.958;10.994;2023-08-17T08:49:54;0.75;;;0.75;;
29906;SDS011;16776;50.958;10.994;2023-08-17T08:52:28;0.90;;;0.90;;
29906;SDS011;16776;50.958;10.994;2023-08-17T08:54:59;1.02;;;1.02;;
29906;SDS011;16776;50.958;10.994;2023-08-17T08:57:35;1.00;;;1.00;;
29906;SDS011;16776;50.958;10.994;2023-08-17T09:00:03;1.83;;;0.90;;
29906;SDS011;16776;50.958;10.994;2023-08-17T09:02:32;0.90;;;0.90;;
29906;SDS011;16776;50.958;10.994;2023-08-17T09:05:01;0.90;;;0.90;;
29906;SDS011;16776;50.958;10.994;2023-08-17T09:07:29;0.93;;;0.93;;
29906;SDS011;16776;50.958;10.994;2023-08-17T09:09:55;1.35;;;1.25;;
29906;SDS011;16776;50.958;10.994;2023-08-17T09:12:22;1.40;;;1.30;;
29906;SDS011;16776;50.958;10.994;2023-08-17T09:14:51;1.20;;;1.20;;
29906;SDS011;16776;50.958;10.994;2023-08-17T09:17:22;1.42;;;1.30;;
29906;SDS011;16776;50.958;10.994;2023-08-17T09:19:49;1.27;;;1.17;;
29906;SDS011;16776;50.958;10.994;2023-08-17T09:22:25;1.33;;;1.20;;
29906;SDS011;16776;50.958;10.994;2023-08-17T09:25:03;1.38;;;1.27;;
29906;SDS011;16776;50.958;10.994;2023-08-17T09:27:31;1.30;;;1.20;;
29906;SDS011;16776;50.958;10.994;2023-08-17T09:30:00;1.40;;;1.30;;
29906;SDS011;16776;50.958;10.994;2023-08-17T09:32:29;1.20;;;1.20;;
29906;SDS011;16776;50.958;10.994;2023-08-17T09:34:56;1.50;;;1.40;;
29906;SDS011;16776;50.958;10.994;2023-08-17T09:37:26;1.58;;;1.40;;
29906;SDS011;16776;50.958;10.994;2023-08-17T09:39:53;1.33;;;1.27;;
29906;SDS011;16776;50.958;10.994;2023-08-17T09:42:22;1.13;;;1.13;;
29906;SDS011;16776;50.958;10.994;2023-08-17T09:44:50;1.30;;;1.20;;
29906;SDS011;16776;50.958;10.994;2023-08-17T09:47:17;1.50;;;1.30;;
29906;SDS011;16776;50.958;10.994;2023-08-17T09:49:47;1.38;;;1.27;;
29906;SDS011;16776;50.958;10.994;2023-08-17T09:52:14;1.38;;;1.27;;
29906;SDS011;16776;50.958;10.994;2023-08-17T09:54:42;1.15;;;1.13;;
29906;SDS011;16776;50.958;10.994;2023-08-17T09:57:11;1.00;;;1.00;;
29906;SDS011;16776;50.958;10.994;2023-08-17T09:59:38;1.42;;;1.33;;
29906;SDS011;16776;50.958;10.994;2023-08-17T10:02:07;1.55;;;1.45;;
29906;SDS011;16776;50.958;10.994;2023-08-17T10:04:42;1.50;;;1.40;;
29906;SDS011;16776;50.958;10.994;2023-08-17T10:07:15;1.17;;;1.10;;
29906;SDS011;16776;50.958;10.994;2023-08-17T10:09:47;1.48;;;1.40;;
29906;SDS011;16776;50.958;10.994;2023-08-17T10:12:21;2.03;;;1.52;;
29906;SDS011;16776;50.958;10.994;2023-08-17T10:14:54;1.60;;;1.50;;
29906;SDS011;16776;50.958;10.994;2023-08-17T10:17:26;1.20;;;1.10;;
29906;SDS011;16776;50.958;10.994;2023-08-17T10:19:54;1.80;;;1.42;;
29906;SDS011;16776;50.958;10.994;2023-08-17T10:22:23;2.13;;;1.40;;
29906;SDS011;16776;50.958;10.994;2023-08-17T10:25:01;1.02;;;1.02;;
29906;SDS011;16776;50.958;10.994;2023-08-17T10:27:29;1.45;;;1.35;;
29906;SDS011;16776;50.958;10.994;2023-08-17T10:29:56;1.67;;;1.58;;
29906;SDS011;16776;50.958;10.994;2023-08-17T10:32:24;1.10;;;1.10;;
29906;SDS011;16776;50.958;10.994;2023-08-17T10:34:51;1.50;;;1.40;;
29906;SDS011;16776;50.958;10.994;2023-08-17T10:37:18;1.17;;;1.17;;
29906;SDS011;16776;50.958;10.994;2023-08-17T10:39:47;1.77;;;1.50;;
29906;SDS011;16776;50.958;10.994;2023-08-17T10:42:16;1.38;;;1.27;;
29906;SDS011;16776;50.958;10.994;2023-08-17T10:44:57;1.25;;;1.15;;
29906;SDS011;16776;50.958;10.994;2023-08-17T10:47:24;1.05;;;1.00;;
29906;SDS011;16776;50.958;10.994;2023-08-17T10:49:52;1.23;;;1.20;;
29906;SDS011;16776;50.958;10.994;2023-08-17T10:52:25;1.30;;;1.20;;
29906;SDS011;16776;50.958;10.994;2023-08-17T10:54:54;1.20;;;1.20;;
29906;SDS011;16776;50.958;10.994;2023-08-17T10:57:27;1.20;;;1.20;;
29906;SDS011;16776;50.958;10.994;2023-08-17T11:00:07;1.65;;;1.17;;
29906;SDS011;16776;50.958;10.994;2023-08-17T11:02:39;1.27;;;1.20;;
29906;SDS011;16776;50.958;10.994;2023-08-17T11:05:06;1.30;;;1.20;;
29906;SDS011;16776;50.958;10.994;2023-08-17T11:07:39;1.40;;;1.30;;
29906;SDS011;16776;50.958;10.994;2023-08-17T11:10:26;1.25;;;1.13;;
29906;SDS011;16776;50.958;10.994;2023-08-17T11:12:55;2.00;;;1.40;;
29906;SDS011;16776;50.958;10.994;2023-08-17T11:15:24;1.15;;;1.13;;
29906;SDS011;16776;50.958;10.994;2023-08-17T11:17:51;1.75;;;1.65;;
29906;SDS011;16776;50.958;10.994;2023-08-17T11:20:18;1.40;;;1.30;;
29906;SDS011;16776;50.958;10.994;2023-08-17T11:22:45;1.30;;;1.30;;
29906;SDS011;16776;50.958;10.994;2023-08-17T11:25:12;1.10;;;1.10;;
29906;SDS011;16776;50.958;10.994;2023-08-17T11:27:39;2.65;;;1.50;;
29906;SDS011;16776;50.958;10.994;2023-08-17T11:30:08;1.15;;;1.10;;
29906;SDS011;16776;50.958;10.994;2023-08-17T11:32:36;1.85;;;1.17;;
29906;SDS011;16776;50.958;10.994;2023-08-17T11:35:03;1.30;;;1.30;;
29906;SDS011;16776;50.958;10.994;2023-08-17T11:37:30;1.60;;;1.50;;
29906;SDS011;16776;50.958;10.994;2023-08-17T11:39:56;1.40;;;1.35;;
29906;SDS011;16776;50.958;10.994;2023-08-17T11:42:23;1.80;;;1.70;;
29906;SDS011;16776;50.958;10.994;2023-08-17T11:44:51;1.52;;;1.42;;
29906;SDS011;16776;50.958;10.994;2023-08-17T11:47:19;1.42;;;1.35;;
29906;SDS011;16776;50.958;10.994;2023-08-17T11:49:47;1.90;;;1.80;;
29906;SDS011;16776;50.958;10.994;2023-08-17T11:52:14;1.35;;;1.35;;
29906;SDS011;16776;50.958;10.994;2023-08-17T11:54:41;1.13;;;1.13;;
29906;SDS011;16776;50.958;10.994;2023-08-17T11:57:07;1.63;;;1.48;;
29906;SDS011;16776;50.958;10.994;2023-08-17T11:59:34;1.40;;;1.30;;
29906;SDS011;16776;50.958;10.994;2023-08-17T12:02:01;1.23;;;1.23;;
29906;SDS011;16776;50.958;10.994;2023-08-17T12:04:29;1.38;;;1.27;;
29906;SDS011;16776;50.958;10.994;2023-08-17T12:06:58;1.63;;;1.52;;
29906;SDS011;16776;50.958;10.994;2023-08-17T12:09:24;1.60;;;1.50;;
29906;SDS011;16776;50.958;10.994;2023-08-17T12:11:54;1.50;;;1.40;;
29906;SDS011;16776;50.958;10.994;2023-08-17T12:14:27;2.35;;;1.50;;
29906;SDS011;16776;50.958;10.994;2023-08-17T12:16:54;1.85;;;1.75;;
29906;SDS011;16776;50.958;10.994;2023-08-17T12:19:24;1.42;;;1.35;;
29906;SDS011;16776;50.958;10.994;2023-08-17T12:21:52;1.52;;;1.42;;
29906;SDS011;16776;50.958;10.994;2023-08-17T12:24:19;1.40;;;1.30;;
29906;SDS011;16776;50.958;10.994;2023-08-17T12:26:46;1.52;;;1.42;;
29906;SDS011;16776;50.958;10.994;2023-08-17T12:29:13;1.65;;;1.55;;
29906;SDS011;16776;50.958;10.994;2023-08-17T12:31:46;1.33;;;1.23;;
29906;SDS011;16776;50.958;10.994;2023-08-17T12:34:14;1.60;;;1.50;;
29906;SDS011;16776;50.958;10.994;2023-08-17T12:36:43;1.60;;;1.50;;
29906;SDS011;16776;50.958;10.994;2023-08-17T12:39:11;1.38;;;1.27;;
29906;SDS011;16776;50.958;10.994;2023-08-17T12:41:38;1.30;;;1.30;;
29906;SDS011;16776;50.958;10.994;2023-08-17T12:44:05;1.58;;;1.48;;
29906;SDS011;16776;50.958;10.994;2023-08-17T12:46:34;2.65;;;1.40;;
29906;SDS011;16776;50.958;10.994;2023-08-17T12:49:01;1.25;;;1.25;;
29906;SDS011;16776;50.958;10.994;2023-08-17T12:51:28;1.85;;;1.75;;
29906;SDS011;16776;50.958;10.994;2023-08-17T12:53:54;1.63;;;1.52;;
29906;SDS011;16776;50.958;10.994;2023-08-17T12:56:22;1.63;;;1.52;;
29906;SDS011;16776;50.958;10.994;2023-08-17T12:58:49;1.85;;;1.75;;
29906;SDS011;16776;50.958;10.994;2023-08-17T13:01:15;1.75;;;1.65;;
29906;SDS011;16776;50.958;10.994;2023-08-17T13:03:45;1.70;;;1.60;;
29906;SDS011;16776;50.958;10.994;2023-08-17T13:06:14;1.90;;;1.80;;
29906;SDS011;16776;50.958;10.994;2023-08-17T13:08:41;1.63;;;1.52;;
29906;SDS011;16776;50.958;10.994;2023-08-17T13:11:08;1.60;;;1.50;;
29906;SDS011;16776;50.958;10.994;2023-08-17T13:13:36;1.73;;;1.63;;
29906;SDS011;16776;50.958;10.994;2023-08-17T13:16:05;1.80;;;1.70;;
29906;SDS011;16776;50.958;10.994;2023-08-17T13:18:32;2.13;;;2.03;;
29906;SDS011;16776;50.958;10.994;2023-08-17T13:20:59;1.58;;;1.48;;
29906;SDS011;16776;50.958;10.994;2023-08-17T13:23:25;2.40;;;2.20;;
29906;SDS011;16776;50.958;10.994;2023-08-17T13:25:52;2.00;;;1.90;;
29906;SDS011;16776;50.958;10.994;2023-08-17T13:28:18;2.10;;;2.00;;
29906;SDS011;16776;50.958;10.994;2023-08-17T13:30:46;2.13;;;1.95;;
29906;SDS011;16776;50.958;10.994;2023-08-17T13:33:13;2.35;;;2.15;;
29906;SDS011;16776;50.958;10.994;2023-08-17T13:35:41;2.28;;;2.10;;
29906;SDS011;16776;50.958;10.994;2023-08-17T13:38:08;1.70;;;1.60;;
29906;SDS011;16776;50.958;10.994;2023-08-17T13:40:34;1.98;;;1.88;;
29906;SDS011;16776;50.958;10.994;2023-08-17T13:43:03;2.13;;;2.03;;
29906;SDS011;16776;50.958;10.994;2023-08-17T13:45:36;2.38;;;2.17;;
29906;SDS011;16776;50.958;10.994;2023-08-17T13:48:05;2.10;;;2.00;;
29906;SDS011;16776;50.958;10.994;2023-08-17T13:50:32;4.03;;;2.25;;
29906;SDS011;16776;50.958;10.994;2023-08-17T13:53:02;2.58;;;2.38;;
29906;SDS011;16776;50.958;10.994;2023-08-17T13:55:30;2.17;;;1.98;;
29906;SDS011;16776;50.958;10.994;2023-08-17T13:57:57;2.35;;;2.15;;
29906;SDS011;16776;50.958;10.994;2023-08-17T14:00:24;3.92;;;2.40;;
29906;SDS011;16776;50.958;10.994;2023-08-17T14:02:51;2.83;;;2.63;;
29906;SDS011;16776;50.958;10.994;2023-08-17T14:05:19;2.60;;;2.40;;
29906;SDS011;16776;50.958;10.994;2023-08-17T14:07:46;2.83;;;2.63;;
29906;SDS011;16776;50.958;10.994;2023-08-17T14:10:13;2.58;;;2.38;;
29906;SDS011;16776;50.958;10.994;2023-08-17T14:12:40;2.47;;;2.30;;
29906;SDS011;16776;50.958;10.994;2023-08-17T14:15:07;3.60;;;2.78;;
29906;SDS011;16776;50.958;10.994;2023-08-17T14:17:34;2.13;;;2.03;;
29906;SDS011;16776;50.958;10.994;2023-08-17T14:20:00;2.72;;;2.53;;
29906;SDS011;16776;50.958;10.994;2023-08-17T14:22:28;2.90;;;2.70;;
29906;SDS011;16776;50.958;10.994;2023-08-17T14:24:55;2.60;;;2.40;;
29906;SDS011;16776;50.958;10.994;2023-08-17T14:27:22;2.55;;;2.35;;
29906;SDS011;16776;50.958;10.994;2023-08-17T14:29:48;2.83;;;2.63;;
29906;SDS011;16776;50.958;10.994;2023-08-17T14:32:15;3.40;;;2.70;;
29906;SDS011;16776;50.958;10.994;2023-08-17T14:34:41;3.00;;;2.80;;
29906;SDS011;16776;50.958;10.994;2023-08-17T14:37:08;2.88;;;2.67;;